Time;durP1;ratioP1;P1;durP2;ratioP2;P2;SDS_P1;SDS_P2;PMS_P1;PMS_P2;Temp;Humidity;BMP_temperature;BMP_pressure;BME280_temperature;BME280_humidity;BME280_pressure;Samples;Min_cycle;Max_cycle;Signal;HPM_P1;HPM_P2
2023/11/15 05:17:09;;;;;;;;;3.25;3.00;;;;;-143.90;100.00;74533.44;4689330;29;102122;-74
2023/11/15 05:19:36;;;;;;;;;6.25;3.00;;;;;-143.90;100.00;74527.25;4696978;29;104059;-74
2023/11/15 05:22:04;;;;;;;;;4.75;4.00;;;;;-143.90;100.00;74539.66;4696631;29;102146;-74
2023/11/15 05:24:30;;;;;;;;;4.00;3.75;;;;;-143.90;100.00;74543.78;4695344;29;102088;-74
2023/11/15 05:26:57;;;;;;;;;6.00;4.75;;;;;-143.90;100.00;74535.50;4697619;29;102485;-74
2023/11/15 05:29:25;;;;;;;;;4.75;3.50;;;;;-143.90;100.00;74541.72;4693100;29;104223;-74
2023/11/15 05:34:33;;;;;;;;;3.00;3.00;;;;;-143.90;100.00;74543.78;3978802;27;103010;-75
2023/11/15 05:37:00;;;;;;;;;3.50;3.50;;;;;-143.90;100.00;74545.84;4701584;29;103275;-75
2023/11/15 05:39:27;;;;;;;;;4.00;3.75;;;;;-143.90;100.00;74549.97;4699005;29;104161;-75
2023/11/15 05:41:53;;;;;;;;;3.00;2.00;;;;;-143.90;100.00;74543.78;4699864;29;102320;-74
2023/11/15 05:44:20;;;;;;;;;3.00;3.00;;;;;-143.90;100.00;74552.03;4703758;29;102321;-76
2023/11/15 05:46:46;;;;;;;;;6.50;4.00;;;;;-143.90;100.00;74549.97;4705378;29;102151;-76
2023/11/15 05:49:13;;;;;;;;;4.00;4.00;;;;;-143.90;100.00;74562.38;4699241;29;104130;-75
2023/11/15 05:51:41;;;;;;;;;6.75;4.00;;;;;-143.90;100.00;74576.84;4699844;29;102023;-75
2023/11/15 05:54:09;;;;;;;;;4.50;4.00;;;;;-143.90;100.00;74572.72;4698358;29;102414;-74
2023/11/15 05:56:36;;;;;;;;;7.00;4.00;;;;;-143.90;100.00;74576.84;4703885;29;102001;-76
2023/11/15 05:59:02;;;;;;;;;4.00;4.00;;;;;-143.90;100.00;74574.78;4696132;29;104140;-75
2023/11/15 06:01:29;;;;;;;;;6.00;4.50;;;;;-143.90;100.00;74576.84;4712978;29;102429;-76
2023/11/15 06:03:56;;;;;;;;;6.50;4.00;;;;;-143.90;100.00;74578.91;4699035;29;102368;-78
2023/11/15 06:06:22;;;;;;;;;5.50;4.00;;;;;-143.90;100.00;74587.19;4702003;29;101977;-75
2023/11/15 06:08:49;;;;;;;;;8.50;7.00;;;;;-143.90;100.00;74595.47;4696137;29;104082;-76
2023/11/15 06:11:16;;;;;;;;;7.75;5.00;;;;;-143.90;100.00;74593.38;4696652;29;102957;-75
2023/11/15 06:13:43;;;;;;;;;7.25;6.75;;;;;-143.90;100.00;74597.53;4703234;29;103454;-76
2023/11/15 06:16:11;;;;;;;;;6.25;5.00;;;;;-143.90;100.00;74595.47;4705478;29;102318;-76
2023/11/15 06:18:38;;;;;;;;;7.25;7.00;;;;;-143.90;100.00;74593.38;4701139;29;104500;-74
2023/11/15 06:21:05;;;;;;;;;8.00;8.00;;;;;-143.90;100.00;74595.47;4701269;29;102183;-74
2023/11/15 06:23:34;;;;;;;;;7.50;6.00;;;;;-143.90;100.00;74601.66;4700241;29;102250;-74
2023/11/15 06:26:00;;;;;;;;;8.25;8.00;;;;;-143.90;100.00;74601.66;4699303;29;102884;-74
2023/11/15 06:28:27;;;;;;;;;8.00;7.00;;;;;-143.90;100.00;74605.78;4693968;29;104513;-75
2023/11/15 06:30:54;;;;;;;;;7.75;7.25;;;;;-143.90;100.00;74618.19;4698885;29;102096;-75
2023/11/15 06:33:20;;;;;;;;;5.50;5.50;;;;;-143.90;100.00;74603.72;4710390;29;102410;-75
2023/11/15 06:35:48;;;;;;;;;9.25;8.25;;;;;-143.90;100.00;74616.13;4719920;29;101976;-75
2023/11/15 06:38:15;;;;;;;;;7.00;5.00;;;;;-143.90;100.00;74618.19;4718211;29;104073;-75
2023/11/15 06:40:41;;;;;;;;;7.75;7.50;;;;;-143.90;100.00;74618.19;4714625;29;102085;-75
2023/11/15 06:43:08;;;;;;;;;2.25;2.00;;;;;-143.90;100.00;74609.94;4719995;29;102479;-74
2023/11/15 06:45:34;;;;;;;;;10.50;7.50;;;;;-143.90;100.00;74614.06;4722414;29;102064;-76
2023/11/15 06:48:01;;;;;;;;;8.75;8.00;;;;;-143.90;100.00;74624.41;4701671;29;104106;-74
2023/11/15 06:50:28;;;;;;;;;9.00;8.25;;;;;-143.90;100.00;74620.25;4716672;29;102515;-75
2023/11/15 06:52:55;;;;;;;;;9.50;9.00;;;;;-143.90;100.00;74624.41;4706009;29;102326;-74
2023/11/15 06:55:22;;;;;;;;;10.00;8.00;;;;;-143.90;100.00;74622.34;4707229;29;102272;-75
2023/11/15 06:57:49;;;;;;;;;10.25;10.00;;;;;-143.90;100.00;74628.53;4704974;29;104153;-75
2023/11/15 07:00:16;;;;;;;;;9.00;8.75;;;;;-143.90;100.00;74626.47;4722543;29;102201;-75
2023/11/15 07:02:42;;;;;;;;;12.50;11.25;;;;;-143.90;100.00;74638.88;4719434;29;101985;-74
2023/11/15 07:05:10;;;;;;;;;8.00;8.00;;;;;-143.90;100.00;74634.72;4718876;29;102426;-73
2023/11/15 07:07:37;;;;;;;;;9.25;8.00;;;;;-143.90;100.00;74638.88;4719161;29;104040;-74
2023/11/15 07:10:05;;;;;;;;;8.25;8.00;;;;;-143.90;100.00;74643.00;4707915;29;102212;-75
2023/11/15 07:12:35;;;;;;;;;9.00;8.00;;;;;-143.90;100.00;74647.13;4722450;29;102094;-75
2023/11/15 07:15:03;;;;;;;;;8.25;8.25;;;;;-143.90;100.00;74636.81;4723613;29;102360;-74
2023/11/15 07:17:31;;;;;;;;;6.50;5.50;;;;;-143.90;100.00;74632.66;4717832;29;104152;-75
2023/11/15 07:19:58;;;;;;;;;9.25;7.75;;;;;-143.90;100.00;74632.66;4698914;29;101874;-75
2023/11/15 07:22:25;;;;;;;;;4.00;4.00;;;;;-143.90;100.00;74618.19;4706177;29;102230;-74
2023/11/15 07:24:53;;;;;;;;;7.50;6.75;;;;;-143.90;100.00;74626.47;4721313;29;102099;-74
2023/11/15 07:27:23;;;;;;;;;7.25;6.75;;;;;-143.90;100.00;74618.19;4720508;29;104226;-74
2023/11/15 07:29:51;;;;;;;;;6.50;5.00;;;;;-143.90;100.00;74618.19;4708267;29;103176;-73
2023/11/15 07:32:18;;;;;;;;;2.25;2.25;;;;;-143.90;100.00;74612.00;4715905;29;102029;-74
2023/11/15 07:34:45;;;;;;;;;7.00;5.00;;;;;-143.90;100.00;74616.13;4709673;29;102227;-74
2023/11/15 07:37:12;;;;;;;;;2.50;2.50;;;;;-143.90;100.00;74614.06;4703341;29;104074;-74
2023/11/15 07:39:39;;;;;;;;;3.50;2.00;;;;;-143.90;100.00;74609.94;4701657;29;103100;-74
2023/11/15 07:42:06;;;;;;;;;2.00;2.00;;;;;-143.90;100.00;74597.53;4699955;29;102545;-75
2023/11/15 07:44:32;;;;;;;;;3.50;2.50;;;;;-143.90;100.00;74605.78;4698523;29;101957;-74
2023/11/15 07:46:59;;;;;;;;;6.00;5.50;;;;;-143.90;100.00;74614.06;4701447;29;104147;-75
2023/11/15 07:49:28;;;;;;;;;4.00;4.00;;;;;-143.90;100.00;74605.78;4815735;24;103577;-73
2023/11/15 07:51:55;;;;;;;;;8.25;8.00;;;;;-143.90;100.00;74616.13;4699930;29;102246;-74
2023/11/15 07:54:22;;;;;;;;;8.25;7.75;;;;;-143.90;100.00;74622.34;4700552;29;102087;-74
2023/11/15 07:56:49;;;;;;;;;9.00;8.00;;;;;-143.90;100.00;74622.34;4695004;29;104248;-74
2023/11/15 07:59:16;;;;;;;;;8.50;8.50;;;;;-143.90;100.00;74634.72;4705393;29;102429;-74
2023/11/15 08:01:43;;;;;;;;;10.00;10.00;;;;;-143.90;100.00;74634.72;4702304;29;101900;-74
2023/11/15 08:04:14;;;;;;;;;7.75;7.00;;;;;-143.90;100.00;74620.25;4686114;29;103395;-75
2023/11/15 08:06:42;;;;;;;;;6.00;6.00;;;;;-143.90;100.00;74618.19;4696595;29;104030;-75
2023/11/15 08:09:23;;;;;;;;;10.00;8.25;;;;;-143.90;100.00;74624.41;4696990;29;102503;-74
2023/11/15 08:11:53;;;;;;;;;6.50;6.50;;;;;-143.90;100.00;74630.59;4706222;29;101863;-74
2023/11/15 08:14:21;;;;;;;;;7.75;7.75;;;;;-143.90;100.00;74620.25;4706267;29;102275;-75
2023/11/15 08:16:49;;;;;;;;;9.00;9.00;;;;;-143.90;100.00;74634.72;4702798;29;104164;-75
2023/11/15 08:19:16;;;;;;;;;13.75;10.00;;;;;-143.90;100.00;74634.72;4703992;29;102105;-75
2023/11/15 08:21:42;;;;;;;;;9.00;8.00;;;;;-143.90;100.00;74651.28;4680152;29;102343;-74
2023/11/15 08:24:09;;;;;;;;;9.25;8.00;;;;;-143.90;100.00;74663.66;4706742;29;102398;-75
2023/11/15 08:26:37;;;;;;;;;7.00;7.00;;;;;-143.90;100.00;74659.53;4700249;29;103163;-74
2023/11/15 08:29:05;;;;;;;;;5.00;5.00;;;;;-143.90;100.00;74653.34;4703031;29;102344;-75
2023/11/15 08:31:33;;;;;;;;;8.50;7.00;;;;;-143.90;100.00;74653.34;4699064;29;101859;-75
2023/11/15 08:33:59;;;;;;;;;8.75;7.00;;;;;-143.90;100.00;74669.88;4701228;29;102452;-75
2023/11/15 08:36:26;;;;;;;;;8.00;5.25;;;;;-143.90;100.00;74657.47;4700899;29;104099;-75
2023/11/15 08:38:53;;;;;;;;;10.75;8.25;;;;;-143.90;100.00;74665.75;4701712;29;102513;-75
2023/11/15 08:41:19;;;;;;;;;8.50;6.75;;;;;-143.90;100.00;74680.22;4696409;29;102512;-75
2023/11/15 08:43:46;;;;;;;;;10.00;8.00;;;;;-143.90;100.00;74684.34;4700745;29;102529;-75
2023/11/15 08:46:16;;;;;;;;;10.25;9.75;;;;;-143.90;100.00;74688.47;4698869;29;104225;-75
2023/11/15 08:48:44;;;;;;;;;12.75;11.50;;;;;-143.90;100.00;74690.53;4696878;29;101873;-73
2023/11/15 08:51:11;;;;;;;;;9.75;9.00;;;;;-143.90;100.00;74700.88;4702442;29;101993;-75
2023/11/15 08:53:39;;;;;;;;;15.00;11.75;;;;;-143.90;100.00;74696.75;4700716;29;102230;-75
2023/11/15 08:56:13;;;;;;;;;13.50;11.50;;;;;-143.90;100.00;74698.81;4699676;29;104416;-74
2023/11/15 08:58:40;;;;;;;;;9.00;7.75;;;;;-143.90;100.00;74698.81;4699455;29;101912;-75
2023/11/15 09:01:09;;;;;;;;;13.00;12.00;;;;;-143.90;100.00;74713.28;4692082;29;102738;-75
2023/11/15 09:03:39;;;;;;;;;15.00;11.25;;;;;-143.90;100.00;74705.00;4702258;29;102491;-75
2023/11/15 09:06:06;;;;;;;;;11.50;11.50;;;;;-143.90;100.00;74717.41;4699396;29;104383;-75
2023/11/15 09:08:33;;;;;;;;;17.25;15.00;;;;;-143.90;100.00;74736.03;4698464;29;102012;-75
2023/11/15 09:11:00;;;;;;;;;13.00;13.00;;;;;-143.90;100.00;74717.41;4679446;29;102916;-75
2023/11/15 09:13:28;;;;;;;;;11.00;10.00;;;;;-143.90;100.00;74711.22;4708171;29;102533;-73
2023/11/15 09:15:55;;;;;;;;;14.75;13.50;;;;;-143.90;100.00;74727.75;4699658;29;105264;-75
2023/11/15 09:18:23;;;;;;;;;12.00;11.50;;;;;-143.90;100.00;74700.88;4703121;29;102352;-75
2023/11/15 09:20:52;;;;;;;;;10.50;10.00;;;;;-143.90;100.00;74702.94;4696836;29;102157;-73
2023/11/15 09:23:19;;;;;;;;;12.50;10.50;;;;;-143.90;100.00;74723.63;4709779;29;102111;-74
2023/11/15 09:25:58;;;;;;;;;17.00;14.50;;;;;-143.90;100.00;74744.28;4702397;29;103403;-74
2023/11/15 09:28:25;;;;;;;;;12.75;9.50;;;;;-143.90;100.00;74742.22;4698658;29;102057;-74
2023/11/15 09:30:52;;;;;;;;;13.50;12.00;;;;;-143.90;100.00;74742.22;4696764;29;102479;-73
2023/11/15 09:33:20;;;;;;;;;13.25;10.00;;;;;-143.90;100.00;74729.81;4700701;29;102440;-74
2023/11/15 09:35:48;;;;;;;;;16.50;14.25;;;;;-143.90;100.00;74733.97;4700941;29;104467;-74
2023/11/15 09:38:26;;;;;;;;;11.25;9.25;;;;;-143.90;100.00;74725.69;4700271;29;102235;-74
2023/11/15 09:40:53;;;;;;;;;9.00;9.00;;;;;-143.90;100.00;74715.34;4704208;29;101878;-74
2023/11/15 09:43:20;;;;;;;;;11.50;11.00;;;;;-143.90;100.00;74717.41;4700543;29;102057;-76
2023/11/15 09:45:48;;;;;;;;;13.25;11.75;;;;;-143.90;100.00;74746.34;4697789;29;104303;-75
2023/11/15 09:48:15;;;;;;;;;12.50;8.75;;;;;-143.90;100.00;74721.56;4688878;29;102103;-74
2023/11/15 09:50:48;;;;;;;;;12.75;10.25;;;;;-143.90;100.00;74709.16;4705856;29;102263;-74
2023/11/15 09:53:19;;;;;;;;;13.50;12.00;;;;;-143.90;100.00;74736.03;4704470;29;101942;-74
2023/11/15 09:55:47;;;;;;;;;17.25;12.50;;;;;-143.90;100.00;74738.09;4701624;29;104048;-74
2023/11/15 09:58:14;;;;;;;;;10.50;10.50;;;;;-143.90;100.00;74746.34;4697281;29;102041;-74
2023/11/15 10:00:41;;;;;;;;;13.00;10.00;;;;;-143.90;100.00;74731.88;4700166;29;101885;-74
2023/11/15 10:03:08;;;;;;;;;14.00;12.25;;;;;-143.90;100.00;74738.09;4699882;29;102211;-74
2023/11/15 10:05:35;;;;;;;;;14.00;11.50;;;;;-143.90;100.00;74746.34;4681479;29;104236;-74
2023/11/15 10:08:13;;;;;;;;;10.50;9.50;;;;;-143.90;100.00;74750.50;4696932;29;101943;-74
2023/11/15 10:10:45;;;;;;;;;10.00;7.50;;;;;-143.90;100.00;74746.34;4679455;29;101998;-75
2023/11/15 10:13:15;;;;;;;;;9.25;8.25;;;;;-143.90;100.00;74738.09;4697544;29;102180;-75
2023/11/15 10:15:46;;;;;;;;;9.50;7.50;;;;;-143.90;100.00;74752.56;4698409;29;104196;-75
2023/11/15 10:18:15;;;;;;;;;13.25;11.00;;;;;-143.90;100.00;74758.75;4698215;29;102014;-74
2023/11/15 10:20:43;;;;;;;;;10.75;9.50;;;;;-143.90;100.00;74744.28;4691298;29;102110;-74
2023/11/15 10:23:11;;;;;;;;;16.25;11.75;;;;;-143.90;100.00;74760.81;4701715;29;102120;-74
2023/11/15 10:25:47;;;;;;;;;10.75;10.25;;;;;-143.90;100.00;74758.75;4702851;29;105256;-73
2023/11/15 10:28:15;;;;;;;;;8.50;8.25;;;;;-143.90;100.00;74752.56;4693266;29;101902;-74
2023/11/15 10:30:42;;;;;;;;;10.75;9.25;;;;;-143.90;100.00;74758.75;4702696;29;102328;-75
2023/11/15 10:33:10;;;;;;;;;9.75;9.00;;;;;-143.90;100.00;74771.16;4698640;29;102398;-74
2023/11/15 10:35:38;;;;;;;;;10.25;9.75;;;;;-143.90;100.00;74791.84;4697240;29;104255;-75
2023/11/15 10:38:14;;;;;;;;;12.00;9.00;;;;;-143.90;100.00;74779.44;4689445;29;102646;-74
2023/11/15 10:40:41;;;;;;;;;13.75;10.50;;;;;-143.90;100.00;74777.38;4698884;29;102373;-75
2023/11/15 10:43:12;;;;;;;;;14.00;13.25;;;;;-143.90;100.00;74769.09;4696173;29;102492;-75
2023/11/15 10:45:39;;;;;;;;;8.75;8.75;;;;;-143.90;100.00;74750.50;4700927;29;104166;-74
2023/11/15 10:48:11;;;;;;;;;10.50;9.25;;;;;-143.90;100.00;74754.63;4694639;29;102013;-74
2023/11/15 10:50:44;;;;;;;;;4.50;3.50;;;;;-143.90;100.00;74758.75;4707802;29;102855;-73
2023/11/15 10:53:12;;;;;;;;;17.00;13.25;;;;;-143.90;100.00;74746.34;4701522;29;102216;-75
2023/11/15 10:55:39;;;;;;;;;14.75;11.75;;;;;-143.90;100.00;74756.69;4681870;29;104232;-76
2023/11/15 10:58:11;;;;;;;;;10.50;9.25;;;;;-143.90;100.00;74767.03;4702586;29;101857;-74
2023/11/15 11:00:43;;;;;;;;;14.00;10.50;;;;;-143.90;100.00;74764.97;4701358;29;102402;-74
2023/11/15 11:03:13;;;;;;;;;14.25;10.75;;;;;-143.90;100.00;74767.03;4700557;29;101995;-74
2023/11/15 11:06:02;;;;;;;;;10.25;9.00;;;;;-143.90;100.00;74775.31;4691086;29;103839;-73
2023/11/15 11:08:48;;;;;;;;;8.50;7.25;;;;;-143.90;100.00;74783.56;4704518;29;102134;-74
2023/11/15 11:11:25;;;;;;;;;10.00;9.50;;;;;-143.90;100.00;74798.03;4705977;29;102415;-73
2023/11/15 11:14:31;;;;;;;;;10.00;8.75;;;;;-143.90;100.00;74814.56;4706450;29;102617;-73
2023/11/15 11:16:58;;;;;;;;;7.25;6.75;;;;;-143.90;100.00;74816.66;4693136;29;104391;-73
2023/11/15 11:19:26;;;;;;;;;9.25;8.50;;;;;-143.90;100.00;74808.38;4699361;29;102202;-74
2023/11/15 11:22:05;;;;;;;;;7.00;7.00;;;;;-143.90;100.00;74820.78;4699645;29;102763;-73
2023/11/15 11:24:39;;;;;;;;;7.00;7.00;;;;;-143.90;100.00;74820.78;4705331;29;102344;-74
2023/11/15 11:27:12;;;;;;;;;8.50;7.25;;;;;-143.90;100.00;74839.38;4706008;29;103999;-74
2023/11/15 11:29:51;;;;;;;;;9.25;8.25;;;;;-143.90;100.00;74831.13;4705574;29;102296;-74
2023/11/15 11:32:20;;;;;;;;;13.00;11.50;;;;;-143.90;100.00;74835.25;4704964;29;102399;-74
2023/11/15 11:35:06;;;;;;;;;13.25;13.00;;;;;-143.90;100.00;74833.19;4692732;29;102087;-73
2023/11/15 11:37:50;;;;;;;;;12.75;10.50;;;;;-143.90;100.00;74833.19;4701725;29;104237;-74
2023/11/15 11:40:23;;;;;;;;;12.50;9.25;;;;;-143.90;100.00;74829.03;4713060;29;101875;-75
2023/11/15 11:42:55;;;;;;;;;8.00;7.50;;;;;-143.90;100.00;74808.38;4705989;29;102291;-75
2023/11/15 11:45:25;;;;;;;;;12.00;9.00;;;;;-143.90;100.00;74795.97;4704667;29;102107;-74
2023/11/15 11:47:51;;;;;;;;;13.50;10.00;;;;;-143.90;100.00;74798.03;4704932;29;103440;-74
2023/11/15 11:50:20;;;;;;;;;10.75;8.75;;;;;-143.90;100.00;74789.78;4702530;29;103195;-73
2023/11/15 11:52:52;;;;;;;;;9.25;7.25;;;;;-143.90;100.00;74795.97;4705005;29;102882;-73
2023/11/15 11:55:19;;;;;;;;;8.25;5.25;;;;;-143.90;100.00;74787.69;4688409;29;101941;-73
2023/11/15 11:57:45;;;;;;;;;1.00;0.00;;;;;-143.90;100.00;74775.31;4702734;29;104246;-74
2023/11/15 12:00:14;;;;;;;;;9.25;8.75;;;;;-143.90;100.00;74779.44;4703975;29;102310;-74
2023/11/15 12:02:49;;;;;;;;;7.25;5.50;;;;;-143.90;100.00;74804.25;4703649;29;102320;-74
2023/11/15 12:05:24;;;;;;;;;9.25;7.75;;;;;-143.90;100.00;74814.56;4703754;29;102030;-73
2023/11/15 12:07:56;;;;;;;;;7.00;6.50;;;;;-143.90;100.00;74872.47;4703238;29;104018;-74
2023/11/15 12:10:24;;;;;;;;;5.25;5.25;;;;;-143.90;100.00;74884.88;4703305;29;102187;-74
2023/11/15 12:13:03;;;;;;;;;3.00;3.00;;;;;-143.90;100.00;74899.34;4702688;29;102156;-74
2023/11/15 12:15:35;;;;;;;;;5.00;3.25;;;;;-143.90;100.00;74891.06;4703324;29;102220;-75
2023/11/15 12:18:02;;;;;;;;;6.00;5.00;;;;;-143.90;100.00;74895.19;4701703;29;104455;-75
2023/11/15 12:20:33;;;;;;;;;5.00;5.00;;;;;-143.90;100.00;74895.19;4701541;29;103011;-74
2023/11/15 12:23:03;;;;;;;;;11.00;8.00;;;;;-143.90;100.00;74895.19;4691819;29;101917;-74
2023/11/15 12:25:31;;;;;;;;;6.50;6.50;;;;;-143.90;100.00;74882.78;4701747;29;102149;-74
2023/11/15 12:28:02;;;;;;;;;6.75;6.50;;;;;-143.90;100.00;74876.59;4701034;29;103962;-73
2023/11/15 12:30:32;;;;;;;;;8.00;7.00;;;;;-143.90;100.00;74870.38;4700584;29;103006;-72
2023/11/15 12:33:03;;;;;;;;;9.00;8.00;;;;;-143.90;100.00;74868.31;4698146;29;102547;-73
2023/11/15 12:35:31;;;;;;;;;6.00;5.25;;;;;-143.90;100.00;74862.13;4682481;29;102087;-74
2023/11/15 12:38:05;;;;;;;;;8.00;6.75;;;;;-143.90;100.00;74853.84;4700326;29;104137;-74
2023/11/15 12:40:39;;;;;;;;;8.00;6.25;;;;;-143.90;100.00;74849.72;4701591;29;101992;-75
2023/11/15 12:43:21;;;;;;;;;7.75;6.75;;;;;-143.90;100.00;74841.44;4698501;29;102139;-74
2023/11/15 12:45:51;;;;;;;;;7.00;7.00;;;;;-143.90;100.00;74841.44;4700915;29;102476;-73
2023/11/15 12:48:19;;;;;;;;;9.50;9.00;;;;;-143.90;100.00;74843.53;4698028;29;104426;-74
2023/11/15 12:50:47;;;;;;;;;9.25;8.00;;;;;-143.90;100.00;74858.00;4700581;29;101967;-74
2023/11/15 12:53:17;;;;;;;;;9.50;8.00;;;;;-143.90;100.00;74855.91;4688748;29;102253;-74
2023/11/15 12:55:49;;;;;;;;;5.00;4.25;;;;;-143.90;100.00;74853.84;4705466;29;102336;-73
2023/11/15 12:58:41;;;;;;;;;4.50;3.50;;;;;-143.90;100.00;74829.03;4701696;29;104506;-72
2023/11/15 13:01:15;;;;;;;;;8.50;6.25;;;;;-143.90;100.00;74802.16;4685492;29;102275;-75
2023/11/15 13:03:42;;;;;;;;;8.25;6.50;;;;;-143.90;100.00;74806.31;4698205;29;102897;-74
2023/11/15 13:06:11;;;;;;;;;3.00;3.00;;;;;-143.90;100.00;74824.91;4700586;29;102626;-75
2023/11/15 13:08:39;;;;;;;;;5.00;5.00;;;;;-143.90;100.00;74814.56;4698004;29;103515;-75
2023/11/15 13:11:06;;;;;;;;;7.00;4.00;;;;;-143.90;100.00;74816.66;4698029;29;102067;-74
2023/11/15 13:13:33;;;;;;;;;3.00;2.25;;;;;-143.90;100.00;74822.84;4700616;29;101863;-75
2023/11/15 13:16:00;;;;;;;;;4.00;3.00;;;;;-143.90;100.00;74820.78;4697743;29;102420;-74
2023/11/15 13:18:26;;;;;;;;;7.25;3.75;;;;;-143.90;100.00;74841.44;4696691;29;103780;-73
2023/11/15 13:20:57;;;;;;;;;4.00;3.00;;;;;-143.90;100.00;74833.19;4703254;29;102933;-73
2023/11/15 13:23:29;;;;;;;;;4.00;2.00;;;;;-143.90;100.00;74826.97;4701282;29;101960;-73
2023/11/15 13:25:55;;;;;;;;;3.00;3.00;;;;;-143.90;100.00;74829.03;4698953;29;102259;-74
2023/11/15 13:28:24;;;;;;;;;4.00;3.00;;;;;-143.90;100.00;74835.25;4697614;29;104118;-74
2023/11/15 13:30:51;;;;;;;;;3.00;3.00;;;;;-143.90;100.00;74831.13;4699354;29;103045;-73
2023/11/15 13:33:17;;;;;;;;;7.00;4.50;;;;;-143.90;100.00;74829.03;4700532;29;101884;-74
2023/11/15 13:35:45;;;;;;;;;0.25;0.00;;;;;-143.90;100.00;74808.38;4690977;29;102004;-74
2023/11/15 13:38:12;;;;;;;;;4.00;4.00;;;;;-143.90;100.00;74822.84;4681316;29;104337;-73
2023/11/15 13:40:41;;;;;;;;;6.00;6.00;;;;;-143.90;100.00;74833.19;4701366;29;101877;-74
2023/11/15 13:43:08;;;;;;;;;7.50;7.00;;;;;-143.90;100.00;74837.31;4699242;29;101872;-74
2023/11/15 13:45:34;;;;;;;;;7.00;4.75;;;;;-143.90;99.97;74853.84;4700425;29;103290;-73
2023/11/15 13:48:02;;;;;;;;;6.75;6.75;;;;;-143.90;100.00;74851.78;4699946;29;104108;-73
2023/11/15 13:50:29;;;;;;;;;7.50;7.00;;;;;-143.90;100.00;74862.13;4693502;29;102166;-72
2023/11/15 13:52:56;;;;;;;;;9.00;6.50;;;;;-143.90;100.00;74868.31;4703947;29;102311;-74
2023/11/15 13:55:23;;;;;;;;;7.50;7.50;;;;;-143.90;100.00;74874.53;4707234;29;102781;-75
2023/11/15 13:57:50;;;;;;;;;4.50;4.50;;;;;-143.90;99.65;74870.38;4699468;29;104203;-74
2023/11/15 14:00:23;;;;;;;;;8.75;7.25;;;;;-143.90;100.00;74870.38;4697189;29;102284;-73
2023/11/15 14:02:51;;;;;;;;;6.25;5.50;;;;;-143.90;99.58;74872.47;4680818;29;101888;-74
2023/11/15 14:05:20;;;;;;;;;6.00;4.00;;;;;-143.90;100.00;74876.59;4694588;29;102243;-73
2023/11/15 14:07:47;;;;;;;;;6.00;5.25;;;;;-143.90;100.00;74886.94;4696226;29;105656;-72
2023/11/15 14:10:22;;;;;;;;;6.50;6.00;;;;;-143.90;99.30;74886.94;4705147;29;102049;-74
2023/11/15 14:12:50;;;;;;;;;4.50;4.25;;;;;-143.90;100.00;74895.19;4694825;29;102348;-72
2023/11/15 14:15:18;;;;;;;;;6.75;5.50;;;;;-143.90;99.79;74903.47;4709620;29;102275;-75
2023/11/15 14:17:48;;;;;;;;;8.50;7.50;;;;;-143.90;97.85;74915.88;4709874;29;103633;-75
2023/11/15 14:20:19;;;;;;;;;8.00;7.50;;;;;-143.90;98.87;74928.28;4707998;29;102171;-74
2023/11/15 14:22:47;;;;;;;;;9.25;8.25;;;;;-143.90;98.33;74924.13;4709444;29;102381;-74
2023/11/15 14:25:20;;;;;;;;;8.00;7.00;;;;;-143.90;96.69;74928.28;4702682;29;102030;-75
2023/11/15 14:27:49;;;;;;;;;9.50;6.25;;;;;-143.90;96.32;74942.75;4706146;29;104003;-74
2023/11/15 14:30:23;;;;;;;;;2.00;2.00;;;;;-143.90;97.32;74944.81;4692901;29;102338;-73
2023/11/15 14:32:50;;;;;;;;;3.25;3.25;;;;;-143.90;96.29;74957.22;4711271;29;102277;-73
2023/11/15 14:35:18;;;;;;;;;3.00;2.00;;;;;-143.90;98.32;74967.56;4711526;29;102007;-73
2023/11/15 14:37:47;;;;;;;;;4.00;3.00;;;;;-143.90;97.50;74975.81;4692404;29;104320;-73
2023/11/15 14:40:21;;;;;;;;;4.00;2.50;;;;;-143.90;97.27;74977.88;4700673;29;101994;-73
2023/11/15 14:42:50;;;;;;;;;4.00;4.00;;;;;-143.90;97.85;74977.88;4703241;29;101948;-74
2023/11/15 14:45:19;;;;;;;;;6.00;5.00;;;;;-143.90;99.72;74982.03;4689243;29;102838;-74
2023/11/15 14:47:46;;;;;;;;;4.00;3.00;;;;;-143.90;98.28;75002.69;4703504;29;104062;-73
2023/11/15 14:50:14;;;;;;;;;6.00;3.00;;;;;-143.90;98.74;75017.16;4705091;29;102390;-74
2023/11/15 14:55:31;;;;;;;;;2.25;2.25;;;;;-143.90;99.93;75017.16;4703933;29;102440;-75
2023/11/15 14:57:59;;;;;;;;;3.00;3.00;;;;;-143.90;98.44;75015.09;4698253;29;104285;-74
2023/11/15 15:00:26;;;;;;;;;2.75;2.75;;;;;-143.90;99.55;75023.38;4701338;29;102344;-74
2023/11/15 15:02:54;;;;;;;;;4.00;3.00;;;;;-143.90;100.00;75031.63;4702997;29;102336;-73
2023/11/15 15:05:24;;;;;;;;;4.00;3.00;;;;;-143.90;100.00;75031.63;4716409;29;102272;-74
2023/11/15 15:07:51;;;;;;;;;2.50;2.50;;;;;-143.90;100.00;75046.09;4699107;29;104988;-73
2023/11/15 15:10:19;;;;;;;;;3.00;2.75;;;;;-143.90;100.00;75056.44;4703985;29;102164;-74
2023/11/15 15:12:47;;;;;;;;;5.50;2.50;;;;;-143.90;100.00;75062.66;4694098;29;101968;-76
2023/11/15 15:15:17;;;;;;;;;3.50;2.50;;;;;-143.90;100.00;75070.91;4707505;29;103575;-74
2023/11/15 15:17:45;;;;;;;;;4.00;4.00;;;;;-143.90;100.00;75068.84;4699203;29;104700;-73
2023/11/15 15:20:19;;;;;;;;;7.00;7.00;;;;;-143.90;100.00;75081.25;4700289;29;102445;-73
2023/11/15 15:22:46;;;;;;;;;6.50;5.00;;;;;-143.90;100.00;75097.78;4705847;29;102785;-74
2023/11/15 15:25:14;;;;;;;;;7.50;7.00;;;;;-143.90;100.00;75110.19;4704522;29;102290;-74
2023/11/15 15:27:41;;;;;;;;;8.00;6.25;;;;;-143.90;100.00;75106.06;4700738;29;104387;-74
2023/11/15 15:30:13;;;;;;;;;10.75;7.50;;;;;-143.90;100.00;75114.34;4719424;29;102171;-75
2023/11/15 15:32:40;;;;;;;;;6.75;6.75;;;;;-143.90;100.00;75099.88;4703836;29;102322;-74
2023/11/15 15:35:08;;;;;;;;;7.00;7.00;;;;;-143.90;100.00;75108.13;4702089;29;102299;-75
2023/11/15 15:37:35;;;;;;;;;7.50;7.25;;;;;-143.90;100.00;75118.47;4702131;29;103986;-75
2023/11/15 15:40:05;;;;;;;;;4.25;4.25;;;;;-143.90;100.00;75110.19;4701703;29;104485;-74
2023/11/15 15:42:33;;;;;;;;;8.00;7.25;;;;;-143.90;100.00;75110.19;4706087;29;102037;-74
2023/11/15 15:44:59;;;;;;;;;11.00;9.25;;;;;-143.90;100.00;75122.59;4686912;29;101962;-74
2023/11/15 15:47:26;;;;;;;;;13.00;12.50;;;;;-143.90;100.00;75126.75;4710943;29;104194;-75
2023/11/15 15:49:54;;;;;;;;;7.50;7.00;;;;;-143.90;100.00;75135.00;4686582;29;102238;-74
2023/11/15 15:52:22;;;;;;;;;13.00;9.00;;;;;-143.90;100.00;75147.41;4698512;29;102279;-74
2023/11/15 15:54:49;;;;;;;;;12.00;10.00;;;;;-143.90;100.00;75135.00;4685772;29;102304;-74
2023/11/15 15:57:16;;;;;;;;;11.50;8.50;;;;;-143.90;100.00;75139.16;4692350;29;103218;-73
2023/11/15 15:59:42;;;;;;;;;11.00;9.00;;;;;-143.90;100.00;75147.41;4691218;29;102483;-75
2023/11/15 16:02:09;;;;;;;;;10.25;9.00;;;;;-143.90;100.00;75141.22;4702044;29;102161;-75
2023/11/15 16:04:41;;;;;;;;;10.00;8.50;;;;;-143.90;100.00;75147.41;4699349;29;102685;-75
2023/11/15 16:07:10;;;;;;;;;9.00;8.75;;;;;-143.90;100.00;75151.53;4690759;29;104181;-74
2023/11/15 16:09:37;;;;;;;;;7.25;7.00;;;;;-143.90;100.00;75159.81;4698342;29;102371;-75
2023/11/15 16:12:04;;;;;;;;;10.50;9.00;;;;;-143.90;100.00;75174.28;4700721;29;102117;-75
2023/11/15 16:14:31;;;;;;;;;8.25;8.25;;;;;-143.90;100.00;75186.69;4704421;29;102227;-73
2023/11/15 16:16:57;;;;;;;;;9.50;8.00;;;;;-143.90;100.00;75178.41;4701786;29;104212;-75
2023/11/15 16:19:24;;;;;;;;;9.25;8.00;;;;;-143.90;100.00;75184.63;4700546;29;101999;-75
2023/11/15 16:21:51;;;;;;;;;8.00;7.00;;;;;-143.90;100.00;75182.56;4699522;29;103324;-75
2023/11/15 16:24:17;;;;;;;;;9.75;8.25;;;;;-143.90;100.00;75184.63;4703549;29;102435;-75
2023/11/15 16:26:44;;;;;;;;;8.75;8.50;;;;;-143.90;100.00;75194.97;4688073;29;103785;-75
2023/11/15 16:29:20;;;;;;;;;10.00;9.00;;;;;-143.90;100.00;75201.16;4701215;29;102211;-74